sensor_id;sensor_type;location;lat;lon;timestamp;temperature;humidity
2439;DHT22;14509;47.992;7.848;2023-03-11T00:05:40;9.80;44.50
2439;DHT22;14509;47.992;7.848;2023-03-11T00:09:16;10.00;43.40
2439;DHT22;14509;47.992;7.848;2023-03-11T00:24:37;9.90;44.10
2439;DHT22;14509;47.992;7.848;2023-03-11T00:26:40;10.00;43.30
2439;DHT22;14509;47.992;7.848;2023-03-11T00:28:42;9.80;43.60
2439;DHT22;14509;47.992;7.848;2023-03-11T00:30:48;9.70;43.40
2439;DHT22;14509;47.992;7.848;2023-03-11T00:32:52;10.00;43.20
2439;DHT22;14509;47.992;7.848;2023-03-11T00:34:57;9.70;43.70
2439;DHT22;14509;47.992;7.848;2023-03-11T00:36:59;9.70;43.90
2439;DHT22;14509;47.992;7.848;2023-03-11T00:39:03;9.80;43.90
2439;DHT22;14509;47.992;7.848;2023-03-11T00:41:07;9.70;44.00
2439;DHT22;14509;47.992;7.848;2023-03-11T00:43:10;9.70;43.90
2439;DHT22;14509;47.992;7.848;2023-03-11T00:45:14;9.70;43.90
2439;DHT22;14509;47.992;7.848;2023-03-11T00:47:24;9.70;44.00
2439;DHT22;14509;47.992;7.848;2023-03-11T00:49:55;9.80;44.00
2439;DHT22;14509;47.992;7.848;2023-03-11T00:52:03;9.70;43.50
2439;DHT22;14509;47.992;7.848;2023-03-11T00:54:12;9.70;43.80
2439;DHT22;14509;47.992;7.848;2023-03-11T00:56:16;9.80;43.80
2439;DHT22;14509;47.992;7.848;2023-03-11T00:58:18;9.70;43.30
2439;DHT22;14509;47.992;7.848;2023-03-11T01:00:27;9.70;43.40
2439;DHT22;14509;47.992;7.848;2023-03-11T01:02:36;9.70;43.70
2439;DHT22;14509;47.992;7.848;2023-03-11T01:04:41;9.60;43.70
2439;DHT22;14509;47.992;7.848;2023-03-11T01:06:45;9.60;43.10
2439;DHT22;14509;47.992;7.848;2023-03-11T01:08:48;9.70;43.00
2439;DHT22;14509;47.992;7.848;2023-03-11T01:10:50;9.70;43.00
2439;DHT22;14509;47.992;7.848;2023-03-11T01:12:54;9.80;42.60
2439;DHT22;14509;47.992;7.848;2023-03-11T01:14:56;9.70;43.10
2439;DHT22;14509;47.992;7.848;2023-03-11T01:16:58;9.60;42.10
2439;DHT22;14509;47.992;7.848;2023-03-11T01:19:01;9.60;42.20
2439;DHT22;14509;47.992;7.848;2023-03-11T01:21:06;9.60;42.10
2439;DHT22;14509;47.992;7.848;2023-03-11T01:23:11;9.60;42.10
2439;DHT22;14509;47.992;7.848;2023-03-11T01:25:20;9.60;42.50
2439;DHT22;14509;47.992;7.848;2023-03-11T01:27:24;10.10;41.80
2439;DHT22;14509;47.992;7.848;2023-03-11T01:29:33;9.50;41.40
2439;DHT22;14509;47.992;7.848;2023-03-11T01:31:37;9.70;42.10
2439;DHT22;14509;47.992;7.848;2023-03-11T01:33:41;9.50;41.40
2439;DHT22;14509;47.992;7.848;2023-03-11T01:35:44;9.60;41.50
2439;DHT22;14509;47.992;7.848;2023-03-11T01:37:47;9.30;41.20
2439;DHT22;14509;47.992;7.848;2023-03-11T01:39:49;9.30;41.50
2439;DHT22;14509;47.992;7.848;2023-03-11T01:41:51;9.30;41.60
2439;DHT22;14509;47.992;7.848;2023-03-11T01:43:56;9.30;41.20
2439;DHT22;14509;47.992;7.848;2023-03-11T01:46:10;9.20;41.50
2439;DHT22;14509;47.992;7.848;2023-03-11T01:48:17;9.40;42.10
2439;DHT22;14509;47.992;7.848;2023-03-11T01:50:20;9.30;41.70
2439;DHT22;14509;47.992;7.848;2023-03-11T01:52:22;9.30;41.70
2439;DHT22;14509;47.992;7.848;2023-03-11T01:54:29;9.90;41.80
2439;DHT22;14509;47.992;7.848;2023-03-11T01:56:36;9.30;41.50
2439;DHT22;14509;47.992;7.848;2023-03-11T01:58:43;9.40;41.20
2439;DHT22;14509;47.992;7.848;2023-03-11T02:00:51;9.10;40.60
2439;DHT22;14509;47.992;7.848;2023-03-11T02:03:02;9.40;41.00
2439;DHT22;14509;47.992;7.848;2023-03-11T02:05:20;9.40;40.70
2439;DHT22;14509;47.992;7.848;2023-03-11T02:07:24;9.50;40.80
2439;DHT22;14509;47.992;7.848;2023-03-11T02:09:27;10.10;40.10
2439;DHT22;14509;47.992;7.848;2023-03-11T02:11:32;10.20;40.40
2439;DHT22;14509;47.992;7.848;2023-03-11T02:13:40;9.50;40.90
2439;DHT22;14509;47.992;7.848;2023-03-11T02:15:42;9.40;41.00
2439;DHT22;14509;47.992;7.848;2023-03-11T02:17:44;9.40;41.20
2439;DHT22;14509;47.992;7.848;2023-03-11T02:20:03;9.40;41.30
2439;DHT22;14509;47.992;7.848;2023-03-11T02:22:07;9.30;41.50
2439;DHT22;14509;47.992;7.848;2023-03-11T02:24:14;9.30;41.70
2439;DHT22;14509;47.992;7.848;2023-03-11T02:26:22;9.20;41.50
2439;DHT22;14509;47.992;7.848;2023-03-11T02:28:30;9.10;41.20
2439;DHT22;14509;47.992;7.848;2023-03-11T02:30:33;9.10;41.40
2439;DHT22;14509;47.992;7.848;2023-03-11T02:32:37;9.10;41.40
2439;DHT22;14509;47.992;7.848;2023-03-11T02:34:39;9.00;41.50
2439;DHT22;14509;47.992;7.848;2023-03-11T02:36:42;9.00;41.30
2439;DHT22;14509;47.992;7.848;2023-03-11T02:38:47;8.90;41.50
2439;DHT22;14509;47.992;7.848;2023-03-11T02:40:53;8.90;41.70
2439;DHT22;14509;47.992;7.848;2023-03-11T02:42:58;8.90;42.60
2439;DHT22;14509;47.992;7.848;2023-03-11T02:45:06;8.90;41.60
2439;DHT22;14509;47.992;7.848;2023-03-11T02:47:09;8.90;41.00
2439;DHT22;14509;47.992;7.848;2023-03-11T02:49:12;8.90;40.80
2439;DHT22;14509;47.992;7.848;2023-03-11T02:51:14;8.90;40.60
2439;DHT22;14509;47.992;7.848;2023-03-11T02:53:16;8.80;40.80
2439;DHT22;14509;47.992;7.848;2023-03-11T02:55:19;8.90;41.00
2439;DHT22;14509;47.992;7.848;2023-03-11T02:57:21;8.90;40.70
2439;DHT22;14509;47.992;7.848;2023-03-11T02:59:23;8.90;40.90
2439;DHT22;14509;47.992;7.848;2023-03-11T03:01:26;8.90;41.00
2439;DHT22;14509;47.992;7.848;2023-03-11T03:03:28;10.50;41.40
2439;DHT22;14509;47.992;7.848;2023-03-11T03:05:30;9.00;41.00
2439;DHT22;14509;47.992;7.848;2023-03-11T03:07:33;9.10;40.90
2439;DHT22;14509;47.992;7.848;2023-03-11T03:09:36;9.10;40.90
2439;DHT22;14509;47.992;7.848;2023-03-11T03:11:38;9.10;40.80
2439;DHT22;14509;47.992;7.848;2023-03-11T03:13:39;9.10;40.70
2439;DHT22;14509;47.992;7.848;2023-03-11T03:15:41;9.10;40.40
2439;DHT22;14509;47.992;7.848;2023-03-11T03:17:45;9.30;40.60
2439;DHT22;14509;47.992;7.848;2023-03-11T03:19:47;9.10;40.20
2439;DHT22;14509;47.992;7.848;2023-03-11T03:21:48;9.00;40.30
2439;DHT22;14509;47.992;7.848;2023-03-11T03:23:50;9.00;40.20
2439;DHT22;14509;47.992;7.848;2023-03-11T03:25:52;9.00;40.40
2439;DHT22;14509;47.992;7.848;2023-03-11T03:27:54;9.00;40.70
2439;DHT22;14509;47.992;7.848;2023-03-11T03:29:57;9.00;40.70
2439;DHT22;14509;47.992;7.848;2023-03-11T03:31:58;8.90;40.80
2439;DHT22;14509;47.992;7.848;2023-03-11T03:34:02;8.90;41.00
2439;DHT22;14509;47.992;7.848;2023-03-11T03:36:05;8.80;41.20
2439;DHT22;14509;47.992;7.848;2023-03-11T03:38:13;8.80;41.40
2439;DHT22;14509;47.992;7.848;2023-03-11T03:40:15;8.70;41.50
2439;DHT22;14509;47.992;7.848;2023-03-11T03:42:17;8.70;41.70
2439;DHT22;14509;47.992;7.848;2023-03-11T03:44:19;8.60;41.70
2439;DHT22;14509;47.992;7.848;2023-03-11T03:46:22;8.70;41.90
2439;DHT22;14509;47.992;7.848;2023-03-11T03:48:26;8.60;42.00
2439;DHT22;14509;47.992;7.848;2023-03-11T03:50:29;8.70;42.20
2439;DHT22;14509;47.992;7.848;2023-03-11T03:52:31;8.70;42.20
2439;DHT22;14509;47.992;7.848;2023-03-11T03:54:35;8.60;42.40
2439;DHT22;14509;47.992;7.848;2023-03-11T03:56:37;9.00;42.80
2439;DHT22;14509;47.992;7.848;2023-03-11T03:58:40;8.60;42.60
2439;DHT22;14509;47.992;7.848;2023-03-11T04:00:43;8.60;42.80
2439;DHT22;14509;47.992;7.848;2023-03-11T04:02:45;8.60;42.90
2439;DHT22;14509;47.992;7.848;2023-03-11T04:04:55;8.60;42.90
2439;DHT22;14509;47.992;7.848;2023-03-11T04:06:59;8.60;43.20
2439;DHT22;14509;47.992;7.848;2023-03-11T04:09:01;8.50;43.40
2439;DHT22;14509;47.992;7.848;2023-03-11T04:11:06;8.50;43.50
2439;DHT22;14509;47.992;7.848;2023-03-11T04:13:09;8.50;43.50
2439;DHT22;14509;47.992;7.848;2023-03-11T04:15:11;8.50;43.60
2439;DHT22;14509;47.992;7.848;2023-03-11T04:17:15;8.50;43.60
2439;DHT22;14509;47.992;7.848;2023-03-11T04:19:18;8.50;43.70
2439;DHT22;14509;47.992;7.848;2023-03-11T04:21:20;8.50;43.60
2439;DHT22;14509;47.992;7.848;2023-03-11T04:23:23;8.50;43.50
2439;DHT22;14509;47.992;7.848;2023-03-11T04:25:25;8.50;43.40
2439;DHT22;14509;47.992;7.848;2023-03-11T04:27:27;8.50;43.10
2439;DHT22;14509;47.992;7.848;2023-03-11T04:29:29;8.50;42.90
2439;DHT22;14509;47.992;7.848;2023-03-11T04:31:31;9.10;43.50
2439;DHT22;14509;47.992;7.848;2023-03-11T04:33:37;8.50;43.10
2439;DHT22;14509;47.992;7.848;2023-03-11T04:35:42;8.50;43.30
2439;DHT22;14509;47.992;7.848;2023-03-11T04:37:44;8.40;43.40
2439;DHT22;14509;47.992;7.848;2023-03-11T04:39:49;8.40;43.60
2439;DHT22;14509;47.992;7.848;2023-03-11T04:41:53;8.40;43.80
2439;DHT22;14509;47.992;7.848;2023-03-11T04:43:58;8.40;43.80
2439;DHT22;14509;47.992;7.848;2023-03-11T04:46:00;8.40;43.90
2439;DHT22;14509;47.992;7.848;2023-03-11T04:48:02;8.90;44.00
2439;DHT22;14509;47.992;7.848;2023-03-11T04:50:06;8.80;43.60
2439;DHT22;14509;47.992;7.848;2023-03-11T04:52:09;8.40;43.30
2439;DHT22;14509;47.992;7.848;2023-03-11T04:54:11;8.40;43.20
2439;DHT22;14509;47.992;7.848;2023-03-11T04:56:15;8.40;42.70
2439;DHT22;14509;47.992;7.848;2023-03-11T04:58:17;8.40;42.80
2439;DHT22;14509;47.992;7.848;2023-03-11T05:00:21;8.40;42.90
2439;DHT22;14509;47.992;7.848;2023-03-11T05:02:30;8.40;42.90
2439;DHT22;14509;47.992;7.848;2023-03-11T05:04:34;8.40;42.90
2439;DHT22;14509;47.992;7.848;2023-03-11T05:06:36;8.40;43.00
2439;DHT22;14509;47.992;7.848;2023-03-11T05:08:39;8.40;42.90
2439;DHT22;14509;47.992;7.848;2023-03-11T05:10:41;8.30;43.00
2439;DHT22;14509;47.992;7.848;2023-03-11T05:12:45;8.40;42.60
2439;DHT22;14509;47.992;7.848;2023-03-11T05:14:47;8.30;42.30
2439;DHT22;14509;47.992;7.848;2023-03-11T05:16:49;8.50;42.50
2439;DHT22;14509;47.992;7.848;2023-03-11T05:18:51;8.30;42.60
2439;DHT22;14509;47.992;7.848;2023-03-11T05:20:53;8.30;42.60
2439;DHT22;14509;47.992;7.848;2023-03-11T05:22:59;8.30;42.30
2439;DHT22;14509;47.992;7.848;2023-03-11T05:25:04;8.30;42.40
2439;DHT22;14509;47.992;7.848;2023-03-11T05:27:06;8.30;42.40
2439;DHT22;14509;47.992;7.848;2023-03-11T05:29:11;8.40;42.30
2439;DHT22;14509;47.992;7.848;2023-03-11T05:31:13;8.30;42.30
2439;DHT22;14509;47.992;7.848;2023-03-11T05:33:15;8.50;43.20
2439;DHT22;14509;47.992;7.848;2023-03-11T05:35:17;8.30;42.70
2439;DHT22;14509;47.992;7.848;2023-03-11T05:37:20;8.30;42.90
2439;DHT22;14509;47.992;7.848;2023-03-11T05:39:24;8.30;43.00
2439;DHT22;14509;47.992;7.848;2023-03-11T05:41:26;8.30;43.00
2439;DHT22;14509;47.992;7.848;2023-03-11T05:43:28;8.90;43.30
2439;DHT22;14509;47.992;7.848;2023-03-11T05:45:31;8.30;42.30
2439;DHT22;14509;47.992;7.848;2023-03-11T05:47:35;8.30;42.20
2439;DHT22;14509;47.992;7.848;2023-03-11T05:49:38;8.40;42.30
2439;DHT22;14509;47.992;7.848;2023-03-11T05:51:40;8.40;42.30
2439;DHT22;14509;47.992;7.848;2023-03-11T05:53:43;8.40;42.30
2439;DHT22;14509;47.992;7.848;2023-03-11T05:55:55;8.40;42.30
2439;DHT22;14509;47.992;7.848;2023-03-11T05:57:57;8.40;42.20
2439;DHT22;14509;47.992;7.848;2023-03-11T06:00:00;8.40;42.20
2439;DHT22;14509;47.992;7.848;2023-03-11T06:02:04;8.40;42.00
2439;DHT22;14509;47.992;7.848;2023-03-11T06:04:06;8.40;41.90
2439;DHT22;14509;47.992;7.848;2023-03-11T06:06:10;8.30;41.80
2439;DHT22;14509;47.992;7.848;2023-03-11T06:08:13;8.40;42.10
2439;DHT22;14509;47.992;7.848;2023-03-11T06:10:16;8.30;42.20
2439;DHT22;14509;47.992;7.848;2023-03-11T06:12:19;8.40;42.30
2439;DHT22;14509;47.992;7.848;2023-03-11T06:14:37;8.40;42.20
2439;DHT22;14509;47.992;7.848;2023-03-11T06:16:40;8.40;42.10
2439;DHT22;14509;47.992;7.848;2023-03-11T06:18:44;8.40;42.20
2439;DHT22;14509;47.992;7.848;2023-03-11T06:20:46;8.40;41.70
2439;DHT22;14509;47.992;7.848;2023-03-11T06:22:48;8.40;41.50
2439;DHT22;14509;47.992;7.848;2023-03-11T06:24:50;8.40;41.60
2439;DHT22;14509;47.992;7.848;2023-03-11T06:26:53;8.40;41.40
2439;DHT22;14509;47.992;7.848;2023-03-11T06:28:57;8.40;41.10
2439;DHT22;14509;47.992;7.848;2023-03-11T06:31:06;8.40;41.10
2439;DHT22;14509;47.992;7.848;2023-03-11T06:33:09;8.40;41.10
2439;DHT22;14509;47.992;7.848;2023-03-11T06:35:12;8.50;41.20
2439;DHT22;14509;47.992;7.848;2023-03-11T06:37:14;8.50;41.30
2439;DHT22;14509;47.992;7.848;2023-03-11T06:39:16;8.50;41.20
2439;DHT22;14509;47.992;7.848;2023-03-11T06:41:21;8.60;41.20
2439;DHT22;14509;47.992;7.848;2023-03-11T06:43:23;8.70;41.10
2439;DHT22;14509;47.992;7.848;2023-03-11T06:45:27;8.70;40.20
2439;DHT22;14509;47.992;7.848;2023-03-11T06:47:28;8.90;40.30
2439;DHT22;14509;47.992;7.848;2023-03-11T06:49:30;8.80;39.90
2439;DHT22;14509;47.992;7.848;2023-03-11T06:51:34;8.90;39.80
2439;DHT22;14509;47.992;7.848;2023-03-11T06:53:37;8.90;39.60
2439;DHT22;14509;47.992;7.848;2023-03-11T06:55:39;8.90;39.40
2439;DHT22;14509;47.992;7.848;2023-03-11T06:57:41;8.90;39.20
2439;DHT22;14509;47.992;7.848;2023-03-11T06:59:44;9.00;39.00
2439;DHT22;14509;47.992;7.848;2023-03-11T07:01:49;9.00;38.80
2439;DHT22;14509;47.992;7.848;2023-03-11T07:03:51;9.00;39.10
2439;DHT22;14509;47.992;7.848;2023-03-11T07:05:55;9.00;38.80
2439;DHT22;14509;47.992;7.848;2023-03-11T07:07:58;9.00;38.80
2439;DHT22;14509;47.992;7.848;2023-03-11T07:10:00;9.10;38.80
2439;DHT22;14509;47.992;7.848;2023-03-11T07:12:02;9.00;38.40
2439;DHT22;14509;47.992;7.848;2023-03-11T07:14:09;9.00;38.60
2439;DHT22;14509;47.992;7.848;2023-03-11T07:16:16;9.00;38.60
2439;DHT22;14509;47.992;7.848;2023-03-11T07:18:18;9.00;38.50
2439;DHT22;14509;47.992;7.848;2023-03-11T07:20:20;9.10;38.60
2439;DHT22;14509;47.992;7.848;2023-03-11T07:22:22;9.10;38.40
2439;DHT22;14509;47.992;7.848;2023-03-11T07:24:25;9.10;38.10
2439;DHT22;14509;47.992;7.848;2023-03-11T07:26:28;9.00;37.60
2439;DHT22;14509;47.992;7.848;2023-03-11T07:28:30;8.90;37.90
2439;DHT22;14509;47.992;7.848;2023-03-11T07:30:32;9.40;38.50
2439;DHT22;14509;47.992;7.848;2023-03-11T07:32:34;8.90;38.20
2439;DHT22;14509;47.992;7.848;2023-03-11T07:34:36;8.90;37.90
2439;DHT22;14509;47.992;7.848;2023-03-11T07:36:39;8.90;37.60
2439;DHT22;14509;47.992;7.848;2023-03-11T07:38:41;8.80;37.60
2439;DHT22;14509;47.992;7.848;2023-03-11T07:40:45;8.70;37.50
2439;DHT22;14509;47.992;7.848;2023-03-11T07:42:47;8.80;37.80
2439;DHT22;14509;47.992;7.848;2023-03-11T07:44:49;8.80;38.10
2439;DHT22;14509;47.992;7.848;2023-03-11T07:46:52;8.80;38.20
2439;DHT22;14509;47.992;7.848;2023-03-11T07:48:54;8.80;38.20
2439;DHT22;14509;47.992;7.848;2023-03-11T07:51:01;8.90;38.10
2439;DHT22;14509;47.992;7.848;2023-03-11T07:53:03;8.80;38.10
2439;DHT22;14509;47.992;7.848;2023-03-11T07:55:05;8.90;38.60
2439;DHT22;14509;47.992;7.848;2023-03-11T07:57:08;8.90;38.60
2439;DHT22;14509;47.992;7.848;2023-03-11T07:59:16;9.00;38.80
2439;DHT22;14509;47.992;7.848;2023-03-11T08:01:20;9.00;38.10
2439;DHT22;14509;47.992;7.848;2023-03-11T08:03:22;9.10;38.10
2439;DHT22;14509;47.992;7.848;2023-03-11T08:05:24;9.30;37.80
2439;DHT22;14509;47.992;7.848;2023-03-11T08:07:26;9.30;37.70
2439;DHT22;14509;47.992;7.848;2023-03-11T08:09:28;9.80;37.90
2439;DHT22;14509;47.992;7.848;2023-03-11T08:11:31;9.40;37.80
2439;DHT22;14509;47.992;7.848;2023-03-11T08:13:34;9.40;38.30
2439;DHT22;14509;47.992;7.848;2023-03-11T08:15:36;9.50;38.10
2439;DHT22;14509;47.992;7.848;2023-03-11T08:17:38;9.70;37.20
2439;DHT22;14509;47.992;7.848;2023-03-11T08:19:40;9.70;36.30
2439;DHT22;14509;47.992;7.848;2023-03-11T08:21:42;9.80;36.20
2439;DHT22;14509;47.992;7.848;2023-03-11T08:23:44;9.80;36.10
2439;DHT22;14509;47.992;7.848;2023-03-11T08:25:46;10.00;35.00
2439;DHT22;14509;47.992;7.848;2023-03-11T08:27:48;10.20;34.40
2439;DHT22;14509;47.992;7.848;2023-03-11T08:29:51;10.20;34.10
2439;DHT22;14509;47.992;7.848;2023-03-11T08:31:53;10.20;33.80
2439;DHT22;14509;47.992;7.848;2023-03-11T08:33:57;10.20;33.70
2439;DHT22;14509;47.992;7.848;2023-03-11T08:36:00;10.30;33.70
2439;DHT22;14509;47.992;7.848;2023-03-11T08:38:02;10.30;33.70
2439;DHT22;14509;47.992;7.848;2023-03-11T08:40:05;10.30;33.70
2439;DHT22;14509;47.992;7.848;2023-03-11T08:42:07;10.20;34.00
2439;DHT22;14509;47.992;7.848;2023-03-11T08:44:09;10.00;34.00
2439;DHT22;14509;47.992;7.848;2023-03-11T08:46:22;10.00;34.70
2439;DHT22;14509;47.992;7.848;2023-03-11T08:48:24;10.30;35.30
2439;DHT22;14509;47.992;7.848;2023-03-11T08:50:26;9.40;35.70
2439;DHT22;14509;47.992;7.848;2023-03-11T08:52:28;9.40;36.10
2439;DHT22;14509;47.992;7.848;2023-03-11T08:54:30;9.10;35.90
2439;DHT22;14509;47.992;7.848;2023-03-11T08:56:33;9.00;36.50
2439;DHT22;14509;47.992;7.848;2023-03-11T08:58:35;9.50;37.30
2439;DHT22;14509;47.992;7.848;2023-03-11T09:00:37;8.80;36.40
2439;DHT22;14509;47.992;7.848;2023-03-11T09:02:40;9.80;36.90
2439;DHT22;14509;47.992;7.848;2023-03-11T09:04:43;9.10;36.30
2439;DHT22;14509;47.992;7.848;2023-03-11T09:06:45;8.70;36.10
2439;DHT22;14509;47.992;7.848;2023-03-11T09:08:48;9.00;35.60
2439;DHT22;14509;47.992;7.848;2023-03-11T09:10:50;8.60;34.20
2439;DHT22;14509;47.992;7.848;2023-03-11T09:12:52;9.00;34.40
2439;DHT22;14509;47.992;7.848;2023-03-11T09:14:54;8.60;34.50
2439;DHT22;14509;47.992;7.848;2023-03-11T09:16:56;8.60;34.30
2439;DHT22;14509;47.992;7.848;2023-03-11T09:19:00;8.80;34.40
2439;DHT22;14509;47.992;7.848;2023-03-11T09:21:06;8.70;34.80
2439;DHT22;14509;47.992;7.848;2023-03-11T09:23:09;8.80;35.20
2439;DHT22;14509;47.992;7.848;2023-03-11T09:25:12;8.80;35.50
2439;DHT22;14509;47.992;7.848;2023-03-11T09:27:14;8.90;35.10
2439;DHT22;14509;47.992;7.848;2023-03-11T09:29:16;8.90;34.70
2439;DHT22;14509;47.992;7.848;2023-03-11T09:31:18;8.90;34.10
2439;DHT22;14509;47.992;7.848;2023-03-11T09:33:20;9.30;34.30
2439;DHT22;14509;47.992;7.848;2023-03-11T09:35:23;9.00;33.90
2439;DHT22;14509;47.992;7.848;2023-03-11T09:37:25;9.20;33.20
2439;DHT22;14509;47.992;7.848;2023-03-11T09:39:29;9.30;32.40
2439;DHT22;14509;47.992;7.848;2023-03-11T09:41:38;9.20;32.90
2439;DHT22;14509;47.992;7.848;2023-03-11T09:43:57;9.30;32.80
2439;DHT22;14509;47.992;7.848;2023-03-11T09:46:10;9.40;32.80
2439;DHT22;14509;47.992;7.848;2023-03-11T09:48:21;9.50;32.40
2439;DHT22;14509;47.992;7.848;2023-03-11T09:50:30;9.50;32.10
2439;DHT22;14509;47.992;7.848;2023-03-11T09:52:41;9.60;31.50
2439;DHT22;14509;47.992;7.848;2023-03-11T09:54:47;9.70;32.10
2439;DHT22;14509;47.992;7.848;2023-03-11T09:56:49;9.30;30.60
2439;DHT22;14509;47.992;7.848;2023-03-11T09:58:54;9.50;29.00
2439;DHT22;14509;47.992;7.848;2023-03-11T10:00:57;9.30;29.50
2439;DHT22;14509;47.992;7.848;2023-03-11T10:03:00;9.40;30.30
2439;DHT22;14509;47.992;7.848;2023-03-11T10:05:07;9.30;30.80
2439;DHT22;14509;47.992;7.848;2023-03-11T10:07:15;9.40;30.40
2439;DHT22;14509;47.992;7.848;2023-03-11T10:09:35;9.50;30.00
2439;DHT22;14509;47.992;7.848;2023-03-11T10:11:49;9.90;29.70
2439;DHT22;14509;47.992;7.848;2023-03-11T10:13:59;9.50;29.30
2439;DHT22;14509;47.992;7.848;2023-03-11T10:16:10;9.60;28.90
2439;DHT22;14509;47.992;7.848;2023-03-11T10:18:36;9.70;28.70
2439;DHT22;14509;47.992;7.848;2023-03-11T10:20:46;9.70;28.00
2439;DHT22;14509;47.992;7.848;2023-03-11T10:23:01;10.20;27.70
2439;DHT22;14509;47.992;7.848;2023-03-11T10:25:09;9.80;27.30
2439;DHT22;14509;47.992;7.848;2023-03-11T10:27:16;9.80;28.70
2439;DHT22;14509;47.992;7.848;2023-03-11T10:29:22;9.90;28.90
2439;DHT22;14509;47.992;7.848;2023-03-11T10:31:30;10.40;28.20
2439;DHT22;14509;47.992;7.848;2023-03-11T10:33:38;10.00;27.20
2439;DHT22;14509;47.992;7.848;2023-03-11T10:35:45;10.20;27.10
2439;DHT22;14509;47.992;7.848;2023-03-11T10:37:52;10.20;27.30
2439;DHT22;14509;47.992;7.848;2023-03-11T10:39:57;10.20;27.60
2439;DHT22;14509;47.992;7.848;2023-03-11T10:42:10;10.30;27.60
2439;DHT22;14509;47.992;7.848;2023-03-11T10:44:16;10.40;27.10
2439;DHT22;14509;47.992;7.848;2023-03-11T10:46:23;10.70;27.30
2439;DHT22;14509;47.992;7.848;2023-03-11T10:48:25;10.40;26.50
2439;DHT22;14509;47.992;7.848;2023-03-11T10:50:34;10.50;26.60
2439;DHT22;14509;47.992;7.848;2023-03-11T10:52:41;10.60;26.20
2439;DHT22;14509;47.992;7.848;2023-03-11T10:54:47;10.20;26.30
2439;DHT22;14509;47.992;7.848;2023-03-11T10:57:00;10.40;26.70
2439;DHT22;14509;47.992;7.848;2023-03-11T10:59:04;10.40;26.70
2439;DHT22;14509;47.992;7.848;2023-03-11T11:01:13;10.50;26.80
2439;DHT22;14509;47.992;7.848;2023-03-11T11:03:20;10.50;26.20
2439;DHT22;14509;47.992;7.848;2023-03-11T11:05:28;10.50;26.00
2439;DHT22;14509;47.992;7.848;2023-03-11T11:07:32;10.60;26.30
2439;DHT22;14509;47.992;7.848;2023-03-11T11:09:34;10.70;26.00
2439;DHT22;14509;47.992;7.848;2023-03-11T11:11:38;10.70;25.90
2439;DHT22;14509;47.992;7.848;2023-03-11T11:13:54;11.30;26.50
2439;DHT22;14509;47.992;7.848;2023-03-11T11:15:59;10.80;26.10
2439;DHT22;14509;47.992;7.848;2023-03-11T11:18:03;10.90;26.20
2439;DHT22;14509;47.992;7.848;2023-03-11T11:20:15;11.10;26.50
2439;DHT22;14509;47.992;7.848;2023-03-11T11:22:20;11.10;26.70
2439;DHT22;14509;47.992;7.848;2023-03-11T11:24:24;11.10;26.20
2439;DHT22;14509;47.992;7.848;2023-03-11T11:26:26;11.10;25.90
2439;DHT22;14509;47.992;7.848;2023-03-11T11:28:31;11.20;26.00
2439;DHT22;14509;47.992;7.848;2023-03-11T11:30:33;11.20;25.80
2439;DHT22;14509;47.992;7.848;2023-03-11T11:32:35;11.30;26.10
2439;DHT22;14509;47.992;7.848;2023-03-11T11:34:38;11.50;26.10
2439;DHT22;14509;47.992;7.848;2023-03-11T11:36:40;11.60;25.90
2439;DHT22;14509;47.992;7.848;2023-03-11T11:38:42;12.80;26.20
2439;DHT22;14509;47.992;7.848;2023-03-11T11:40:44;11.90;25.30
2439;DHT22;14509;47.992;7.848;2023-03-11T11:42:50;12.00;25.40
2439;DHT22;14509;47.992;7.848;2023-03-11T11:44:56;12.10;25.60
2439;DHT22;14509;47.992;7.848;2023-03-11T11:47:01;12.20;25.20
2439;DHT22;14509;47.992;7.848;2023-03-11T11:49:10;12.20;25.00
2439;DHT22;14509;47.992;7.848;2023-03-11T11:51:20;12.30;25.10
2439;DHT22;14509;47.992;7.848;2023-03-11T11:53:27;12.60;25.10
2439;DHT22;14509;47.992;7.848;2023-03-11T11:55:32;12.70;25.30
2439;DHT22;14509;47.992;7.848;2023-03-11T11:57:34;12.80;25.30
2439;DHT22;14509;47.992;7.848;2023-03-11T11:59:37;13.00;24.80
2439;DHT22;14509;47.992;7.848;2023-03-11T12:01:48;13.10;24.20
2439;DHT22;14509;47.992;7.848;2023-03-11T12:06:38;13.10;24.30
2439;DHT22;14509;47.992;7.848;2023-03-11T12:08:46;13.00;24.30
2439;DHT22;14509;47.992;7.848;2023-03-11T12:10:55;12.80;24.40
2439;DHT22;14509;47.992;7.848;2023-03-11T12:13:21;12.70;24.20
2439;DHT22;14509;47.992;7.848;2023-03-11T12:15:30;12.60;24.10
2439;DHT22;14509;47.992;7.848;2023-03-11T12:17:38;12.50;24.40
2439;DHT22;14509;47.992;7.848;2023-03-11T12:19:45;12.60;24.40
2439;DHT22;14509;47.992;7.848;2023-03-11T12:22:13;12.60;24.50
2439;DHT22;14509;47.992;7.848;2023-03-11T12:24:32;12.60;24.50
2439;DHT22;14509;47.992;7.848;2023-03-11T12:26:38;12.50;24.50
2439;DHT22;14509;47.992;7.848;2023-03-11T12:28:46;12.60;25.10
2439;DHT22;14509;47.992;7.848;2023-03-11T12:30:52;12.30;25.10
2439;DHT22;14509;47.992;7.848;2023-03-11T12:32:59;12.20;25.30
2439;DHT22;14509;47.992;7.848;2023-03-11T12:35:08;12.40;25.10
2439;DHT22;14509;47.992;7.848;2023-03-11T12:37:20;12.00;24.80
2439;DHT22;14509;47.992;7.848;2023-03-11T12:39:26;12.00;25.30
2439;DHT22;14509;47.992;7.848;2023-03-11T12:41:32;11.90;25.30
2439;DHT22;14509;47.992;7.848;2023-03-11T12:44:22;11.90;25.30
2439;DHT22;14509;47.992;7.848;2023-03-11T12:49:13;12.00;25.40
2439;DHT22;14509;47.992;7.848;2023-03-11T12:51:37;12.10;24.90
2439;DHT22;14509;47.992;7.848;2023-03-11T12:53:44;12.20;24.80
2439;DHT22;14509;47.992;7.848;2023-03-11T12:56:01;12.30;24.70
2439;DHT22;14509;47.992;7.848;2023-03-11T12:58:32;12.40;24.60
2439;DHT22;14509;47.992;7.848;2023-03-11T13:00:48;12.30;24.70
2439;DHT22;14509;47.992;7.848;2023-03-11T13:03:32;12.10;24.70
2439;DHT22;14509;47.992;7.848;2023-03-11T13:05:49;12.10;24.60
2439;DHT22;14509;47.992;7.848;2023-03-11T13:07:55;12.00;24.40
2439;DHT22;14509;47.992;7.848;2023-03-11T13:10:02;12.10;24.60
2439;DHT22;14509;47.992;7.848;2023-03-11T13:12:37;12.00;24.80
2439;DHT22;14509;47.992;7.848;2023-03-11T13:14:39;12.00;25.30
2439;DHT22;14509;47.992;7.848;2023-03-11T13:16:42;12.10;25.30
2439;DHT22;14509;47.992;7.848;2023-03-11T13:18:45;12.10;25.80
2439;DHT22;14509;47.992;7.848;2023-03-11T13:20:54;12.20;24.80
2439;DHT22;14509;47.992;7.848;2023-03-11T13:23:08;12.30;25.00
2439;DHT22;14509;47.992;7.848;2023-03-11T13:25:27;12.40;25.10
2439;DHT22;14509;47.992;7.848;2023-03-11T13:27:41;12.50;24.90
2439;DHT22;14509;47.992;7.848;2023-03-11T13:29:52;12.70;24.30
2439;DHT22;14509;47.992;7.848;2023-03-11T13:32:11;12.80;24.60
2439;DHT22;14509;47.992;7.848;2023-03-11T13:34:24;13.00;24.60
2439;DHT22;14509;47.992;7.848;2023-03-11T13:36:44;13.20;24.40
2439;DHT22;14509;47.992;7.848;2023-03-11T13:39:11;13.40;24.40
2439;DHT22;14509;47.992;7.848;2023-03-11T13:41:20;13.50;24.20
2439;DHT22;14509;47.992;7.848;2023-03-11T13:43:24;13.70;23.90
2439;DHT22;14509;47.992;7.848;2023-03-11T13:45:28;13.90;23.80
2439;DHT22;14509;47.992;7.848;2023-03-11T13:47:31;14.20;23.20
2439;DHT22;14509;47.992;7.848;2023-03-11T13:49:40;14.40;23.10
2439;DHT22;14509;47.992;7.848;2023-03-11T13:51:46;14.50;23.00
2439;DHT22;14509;47.992;7.848;2023-03-11T13:53:55;14.70;23.60
2439;DHT22;14509;47.992;7.848;2023-03-11T13:55:58;14.90;23.40
2439;DHT22;14509;47.992;7.848;2023-03-11T13:58:00;15.00;22.90
2439;DHT22;14509;47.992;7.848;2023-03-11T14:00:06;15.20;22.90